sensor_id;sensor_type;location;lat;lon;timestamp;temperature;humidity
43541;DHT22;29549;40.386;-3.710;2022-11-14T00:09:43;12.60;76.30
43541;DHT22;29549;40.386;-3.710;2022-11-14T00:19:45;12.60;76.30
43541;DHT22;29549;40.386;-3.710;2022-11-14T00:29:46;12.50;76.20
43541;DHT22;29549;40.386;-3.710;2022-11-14T00:39:48;12.50;76.30
43541;DHT22;29549;40.386;-3.710;2022-11-14T00:49:50;12.50;76.30
43541;DHT22;29549;40.386;-3.710;2022-11-14T00:59:51;12.60;76.30
43541;DHT22;29549;40.386;-3.710;2022-11-14T01:09:55;12.50;76.50
43541;DHT22;29549;40.386;-3.710;2022-11-14T01:19:57;12.60;76.40
43541;DHT22;29549;40.386;-3.710;2022-11-14T01:29:58;12.50;76.60
43541;DHT22;29549;40.386;-3.710;2022-11-14T01:40:00;12.50;76.80
43541;DHT22;29549;40.386;-3.710;2022-11-14T01:50:04;12.40;77.10
43541;DHT22;29549;40.386;-3.710;2022-11-14T02:00:09;12.30;76.90
43541;DHT22;29549;40.386;-3.710;2022-11-14T02:10:17;12.30;76.50
43541;DHT22;29549;40.386;-3.710;2022-11-14T02:20:26;12.30;75.80
43541;DHT22;29549;40.386;-3.710;2022-11-14T02:30:35;12.30;75.40
43541;DHT22;29549;40.386;-3.710;2022-11-14T02:40:38;12.20;75.70
43541;DHT22;29549;40.386;-3.710;2022-11-14T02:50:48;12.20;74.80
43541;DHT22;29549;40.386;-3.710;2022-11-14T03:00:52;12.10;74.50
43541;DHT22;29549;40.386;-3.710;2022-11-14T03:11:06;12.00;74.60
43541;DHT22;29549;40.386;-3.710;2022-11-14T03:21:13;11.90;75.20
43541;DHT22;29549;40.386;-3.710;2022-11-14T03:31:16;12.00;75.50
43541;DHT22;29549;40.386;-3.710;2022-11-14T03:41:18;11.90;75.30
43541;DHT22;29549;40.386;-3.710;2022-11-14T03:51:21;11.90;75.00
43541;DHT22;29549;40.386;-3.710;2022-11-14T04:01:23;11.90;74.30
43541;DHT22;29549;40.386;-3.710;2022-11-14T04:11:25;11.80;75.00
43541;DHT22;29549;40.386;-3.710;2022-11-14T04:21:27;12.00;75.00
43541;DHT22;29549;40.386;-3.710;2022-11-14T04:31:28;12.00;75.20
43541;DHT22;29549;40.386;-3.710;2022-11-14T04:41:31;12.10;75.20
43541;DHT22;29549;40.386;-3.710;2022-11-14T04:51:33;12.10;75.10
43541;DHT22;29549;40.386;-3.710;2022-11-14T05:01:35;11.90;75.80
43541;DHT22;29549;40.386;-3.710;2022-11-14T05:11:37;12.00;76.90
43541;DHT22;29549;40.386;-3.710;2022-11-14T05:21:38;12.20;77.80
43541;DHT22;29549;40.386;-3.710;2022-11-14T05:31:40;12.30;78.60
43541;DHT22;29549;40.386;-3.710;2022-11-14T05:41:42;12.40;79.10
43541;DHT22;29549;40.386;-3.710;2022-11-14T05:51:44;12.30;79.40
43541;DHT22;29549;40.386;-3.710;2022-11-14T06:01:46;12.30;79.60
43541;DHT22;29549;40.386;-3.710;2022-11-14T06:11:48;12.30;79.80
43541;DHT22;29549;40.386;-3.710;2022-11-14T06:21:50;12.30;78.90
43541;DHT22;29549;40.386;-3.710;2022-11-14T06:31:51;12.20;78.30
43541;DHT22;29549;40.386;-3.710;2022-11-14T06:41:53;12.20;77.80
43541;DHT22;29549;40.386;-3.710;2022-11-14T06:51:54;12.30;78.30
43541;DHT22;29549;40.386;-3.710;2022-11-14T07:01:56;12.30;78.90
43541;DHT22;29549;40.386;-3.710;2022-11-14T07:11:59;12.50;78.90
43541;DHT22;29549;40.386;-3.710;2022-11-14T07:22:00;12.60;79.10
43541;DHT22;29549;40.386;-3.710;2022-11-14T07:32:02;12.60;79.00
43541;DHT22;29549;40.386;-3.710;2022-11-14T07:42:04;12.60;78.90
43541;DHT22;29549;40.386;-3.710;2022-11-14T07:52:05;12.70;79.00
43541;DHT22;29549;40.386;-3.710;2022-11-14T08:02:14;12.80;78.50
43541;DHT22;29549;40.386;-3.710;2022-11-14T08:12:15;12.90;78.10
43541;DHT22;29549;40.386;-3.710;2022-11-14T08:22:17;13.00;77.60
43541;DHT22;29549;40.386;-3.710;2022-11-14T08:32:19;13.10;77.40
43541;DHT22;29549;40.386;-3.710;2022-11-14T08:42:21;13.20;76.80
43541;DHT22;29549;40.386;-3.710;2022-11-14T08:52:22;13.30;76.50
43541;DHT22;29549;40.386;-3.710;2022-11-14T09:02:24;13.40;76.50
43541;DHT22;29549;40.386;-3.710;2022-11-14T09:12:25;13.50;76.50
43541;DHT22;29549;40.386;-3.710;2022-11-14T09:22:27;13.70;76.30
43541;DHT22;29549;40.386;-3.710;2022-11-14T09:32:29;13.90;76.00
43541;DHT22;29549;40.386;-3.710;2022-11-14T09:52:55;14.20;75.70
43541;DHT22;29549;40.386;-3.710;2022-11-14T10:23:51;14.70;74.70
43541;DHT22;29549;40.386;-3.710;2022-11-14T10:34:10;15.00;74.10
43541;DHT22;29549;40.386;-3.710;2022-11-14T10:44:17;15.10;74.30
43541;DHT22;29549;40.386;-3.710;2022-11-14T11:05:10;15.50;73.80
43541;DHT22;29549;40.386;-3.710;2022-11-14T11:15:31;15.70;73.30
43541;DHT22;29549;40.386;-3.710;2022-11-14T11:25:39;15.80;72.70
43541;DHT22;29549;40.386;-3.710;2022-11-14T11:35:42;15.80;73.60
43541;DHT22;29549;40.386;-3.710;2022-11-14T11:45:46;15.90;73.30
43541;DHT22;29549;40.386;-3.710;2022-11-14T11:55:52;15.90;73.00
43541;DHT22;29549;40.386;-3.710;2022-11-14T12:26:58;16.20;72.40
43541;DHT22;29549;40.386;-3.710;2022-11-14T12:37:14;16.30;71.60
43541;DHT22;29549;40.386;-3.710;2022-11-14T12:47:24;16.30;71.80
43541;DHT22;29549;40.386;-3.710;2022-11-14T12:57:43;16.50;71.90
43541;DHT22;29549;40.386;-3.710;2022-11-14T13:59:52;17.40;67.20
43541;DHT22;29549;40.386;-3.710;2022-11-14T14:10:13;17.50;66.80
43541;DHT22;29549;40.386;-3.710;2022-11-14T14:20:44;17.60;66.60
43541;DHT22;29549;40.386;-3.710;2022-11-14T14:41:09;17.70;65.90
43541;DHT22;29549;40.386;-3.710;2022-11-14T14:51:13;17.60;66.00
43541;DHT22;29549;40.386;-3.710;2022-11-14T15:01:24;17.60;65.10
43541;DHT22;29549;40.386;-3.710;2022-11-14T15:11:28;17.70;65.10
43541;DHT22;29549;40.386;-3.710;2022-11-14T15:21:31;17.60;66.00
43541;DHT22;29549;40.386;-3.710;2022-11-14T15:31:34;17.50;66.90
43541;DHT22;29549;40.386;-3.710;2022-11-14T15:41:36;17.40;68.10
43541;DHT22;29549;40.386;-3.710;2022-11-14T15:51:48;17.30;69.70
43541;DHT22;29549;40.386;-3.710;2022-11-14T16:01:55;17.30;70.20
43541;DHT22;29549;40.386;-3.710;2022-11-14T16:11:58;17.20;70.40
43541;DHT22;29549;40.386;-3.710;2022-11-14T16:22:00;17.10;70.50
43541;DHT22;29549;40.386;-3.710;2022-11-14T16:32:03;17.00;70.90
43541;DHT22;29549;40.386;-3.710;2022-11-14T16:42:05;16.80;71.30
43541;DHT22;29549;40.386;-3.710;2022-11-14T16:52:09;16.70;72.20
43541;DHT22;29549;40.386;-3.710;2022-11-14T17:02:14;16.50;73.40
43541;DHT22;29549;40.386;-3.710;2022-11-14T17:12:16;16.40;74.40
43541;DHT22;29549;40.386;-3.710;2022-11-14T17:22:18;16.20;75.00
43541;DHT22;29549;40.386;-3.710;2022-11-14T17:32:20;16.10;76.20
43541;DHT22;29549;40.386;-3.710;2022-11-14T17:42:22;16.10;76.40
43541;DHT22;29549;40.386;-3.710;2022-11-14T17:52:23;16.20;76.30
43541;DHT22;29549;40.386;-3.710;2022-11-14T18:02:24;16.20;76.70
43541;DHT22;29549;40.386;-3.710;2022-11-14T18:12:26;16.20;76.40
43541;DHT22;29549;40.386;-3.710;2022-11-14T18:22:28;16.10;79.70
43541;DHT22;29549;40.386;-3.710;2022-11-14T18:32:30;16.00;80.20
43541;DHT22;29549;40.386;-3.710;2022-11-14T18:42:31;15.90;79.70
43541;DHT22;29549;40.386;-3.710;2022-11-14T18:52:33;15.80;80.00
43541;DHT22;29549;40.386;-3.710;2022-11-14T19:02:35;15.90;79.50
43541;DHT22;29549;40.386;-3.710;2022-11-14T19:12:36;15.90;79.80
43541;DHT22;29549;40.386;-3.710;2022-11-14T19:22:38;15.80;80.60
43541;DHT22;29549;40.386;-3.710;2022-11-14T19:32:39;15.70;81.50
43541;DHT22;29549;40.386;-3.710;2022-11-14T19:42:41;15.70;81.80
43541;DHT22;29549;40.386;-3.710;2022-11-14T19:52:42;15.60;81.70
43541;DHT22;29549;40.386;-3.710;2022-11-14T20:02:45;15.40;81.80
43541;DHT22;29549;40.386;-3.710;2022-11-14T20:12:46;15.40;81.70
43541;DHT22;29549;40.386;-3.710;2022-11-14T20:22:48;15.40;81.40
43541;DHT22;29549;40.386;-3.710;2022-11-14T20:32:50;15.30;81.40
43541;DHT22;29549;40.386;-3.710;2022-11-14T20:42:52;15.30;81.60
43541;DHT22;29549;40.386;-3.710;2022-11-14T20:52:54;15.20;81.50
43541;DHT22;29549;40.386;-3.710;2022-11-14T21:02:55;15.30;81.30
43541;DHT22;29549;40.386;-3.710;2022-11-14T21:12:58;15.20;81.80
43541;DHT22;29549;40.386;-3.710;2022-11-14T21:23:19;15.20;81.70
43541;DHT22;29549;40.386;-3.710;2022-11-14T21:33:21;15.30;81.60
43541;DHT22;29549;40.386;-3.710;2022-11-14T21:43:22;15.30;81.30
43541;DHT22;29549;40.386;-3.710;2022-11-14T21:53:24;15.20;81.10
43541;DHT22;29549;40.386;-3.710;2022-11-14T22:03:27;15.20;81.10
43541;DHT22;29549;40.386;-3.710;2022-11-14T22:13:48;15.20;80.90
43541;DHT22;29549;40.386;-3.710;2022-11-14T22:23:54;15.20;80.70
43541;DHT22;29549;40.386;-3.710;2022-11-14T22:33:57;15.20;80.30
43541;DHT22;29549;40.386;-3.710;2022-11-14T22:43:58;15.00;80.60
43541;DHT22;29549;40.386;-3.710;2022-11-14T22:54:00;15.00;80.50
43541;DHT22;29549;40.386;-3.710;2022-11-14T23:04:04;14.90;80.50
43541;DHT22;29549;40.386;-3.710;2022-11-14T23:14:05;14.90;80.70
43541;DHT22;29549;40.386;-3.710;2022-11-14T23:24:14;14.80;80.50
43541;DHT22;29549;40.386;-3.710;2022-11-14T23:34:15;14.70;80.60
43541;DHT22;29549;40.386;-3.710;2022-11-14T23:44:17;14.70;80.50
43541;DHT22;29549;40.386;-3.710;2022-11-14T23:54:18;14.60;80.40
